Saskatoon John G. Diefenbaker International Airport
CYXE : now visible

Airfield :











YOU CAN JOIN US ON...

 
LOGIN :

Register | Disclaimer

   EN    FR    IT 

 









Legend :    VFR   Marginal VFR   IFR   Intensive IFR   Very Intensive IFR
Visi :
Ceiling :
>= 8 km
>= 3000ft
5 to 8 km
1000 to 3000 ft
1500m to 5 km
500 to 1000 ft
800 to 1500m
200 to 500 ft
< 800m
< 200 ft
Symbols :   Thunderstorms  Fog  Heavy snow  Heavy precipitations  Wind > 20 kt







- Airport Elevation : 1653 ft
- IATA code : YXE


CYXE - Saskatoon John G. Diefenbaker International

CURRENT METAR :
  • 192200Z 07013G20KT 020V080 15SM FEW070 16/M03 A3016 RMK AC1 AC TR SLP231 DENSITY ALT 2000FT

EXPIRED METARs :
  • 192100Z 11016KT 15SM FEW050 17/M03 A3018 RMK CF1 CF TR SLP237 DENSITY ALT 2000FT
  • 192000Z 09014KT 15SM FEW060 15/M04 A3020 RMK CF1 CF TR SLP245 DENSITY ALT 1800FT

TAF TAF CYXE
Valid from the 19 at 18:00 until the 20 at 18:00 UTC


191738Z 1918/2018 10012G22KT P6SM FEW050
BECMG 2002/2004 10007KT
BECMG 2016/2018 12012KT RMK NXT FCST BY 200000Z
CZWG FIR / North America



MET'MAP, your aeronautical weather chart ! - Copyright ORBIFLY December 2007 - Disclaimer

ORBIFLY MET'MAP TEAM :

Programming & Development : Alexandra Zaïnal
Concept & Development : Baudouin d'Aumeries
Co-Development & Prog : Marc-Olivier Méhu
Technical & hardware support : Manuel Goepfert

Contact : metmap@orbifly.com




SOURCES & CREDITS :

   NOAA       Earth
Advisory